Time;durP1;ratioP1;P1;durP2;ratioP2;P2;SDS_P1;SDS_P2;PMS_P1;PMS_P2;Temp;Humidity;BMP_temperature;BMP_pressure;BME280_temperature;BME280_humidity;BME280_pressure;Samples;Min_cycle;Max_cycle;Signal;HPM_P1;HPM_P2
2023/07/27 00:00:48;;;;;;;2.97;1.60;;;;;;;;;;4959324;28;20034;-77
2023/07/27 00:03:13;;;;;;;3.63;2.10;;;;;;;;;;4949408;28;20731;-77
2023/07/27 00:05:38;;;;;;;3.78;2.10;;;;;;;;;;4958601;28;20109;-77
2023/07/27 00:08:04;;;;;;;3.80;2.03;;;;;;;;;;4966509;28;20451;-77
2023/07/27 00:10:29;;;;;;;3.63;2.03;;;;;;;;;;4960732;28;20197;-76
2023/07/27 00:12:55;;;;;;;4.80;2.08;;;;;;;;;;4972749;28;20041;-77
2023/07/27 00:15:20;;;;;;;4.32;2.13;;;;;;;;;;4945537;28;20135;-77
2023/07/27 00:17:46;;;;;;;4.22;2.10;;;;;;;;;;4956526;28;20041;-77
2023/07/27 00:20:11;;;;;;;5.43;2.10;;;;;;;;;;4967820;28;20081;-77
2023/07/27 00:22:37;;;;;;;3.78;1.90;;;;;;;;;;4951010;28;20502;-77
2023/07/27 00:25:03;;;;;;;3.30;1.98;;;;;;;;;;4951015;28;20065;-76
2023/07/27 00:27:28;;;;;;;3.60;2.08;;;;;;;;;;4976093;28;20038;-76
2023/07/27 00:29:54;;;;;;;3.70;2.17;;;;;;;;;;4945758;28;20142;-77
2023/07/27 00:32:19;;;;;;;4.90;1.90;;;;;;;;;;4974248;28;20034;-77
2023/07/27 00:34:44;;;;;;;4.40;2.17;;;;;;;;;;4959823;28;20038;-77
2023/07/27 00:37:10;;;;;;;3.30;2.03;;;;;;;;;;4967935;28;20045;-77
2023/07/27 00:39:35;;;;;;;3.42;2.10;;;;;;;;;;4954503;28;20631;-77
2023/07/27 00:42:01;;;;;;;3.90;2.10;;;;;;;;;;4975203;28;20030;-77
2023/07/27 00:44:26;;;;;;;4.18;2.40;;;;;;;;;;4961462;28;20062;-76
2023/07/27 00:46:52;;;;;;;3.50;2.13;;;;;;;;;;4976729;28;20034;-75
2023/07/27 00:49:19;;;;;;;3.80;2.25;;;;;;;;;;4975936;28;20054;-76
2023/07/27 00:51:44;;;;;;;3.67;2.20;;;;;;;;;;4959579;28;20042;-75
2023/07/27 00:54:11;;;;;;;3.50;2.15;;;;;;;;;;4957871;28;20094;-75
2023/07/27 00:56:38;;;;;;;4.35;2.20;;;;;;;;;;4962303;28;20043;-76
2023/07/27 00:59:04;;;;;;;4.13;2.33;;;;;;;;;;4975447;28;20039;-76
2023/07/27 01:01:30;;;;;;;4.65;2.05;;;;;;;;;;4969650;28;20631;-75
2023/07/27 01:03:55;;;;;;;4.20;2.08;;;;;;;;;;4959905;28;20022;-76
2023/07/27 01:06:21;;;;;;;4.03;2.30;;;;;;;;;;4960165;28;20042;-76
2023/07/27 01:08:47;;;;;;;5.03;2.30;;;;;;;;;;4959815;28;20418;-76
2023/07/27 01:11:37;;;;;;;3.80;2.25;;;;;;;;;;4977296;28;20073;-77
2023/07/27 01:14:08;;;;;;;3.83;2.40;;;;;;;;;;4975977;28;20058;-77
2023/07/27 01:16:43;;;;;;;4.07;2.45;;;;;;;;;;4962163;28;20038;-77
2023/07/27 01:19:31;;;;;;;4.20;2.40;;;;;;;;;;4976003;28;20065;-77
2023/07/27 01:22:09;;;;;;;4.40;2.80;;;;;;;;;;4981564;28;20142;-77
2023/07/27 01:25:09;;;;;;;4.65;2.42;;;;;;;;;;4996751;28;20046;-77
2023/07/27 01:27:56;;;;;;;4.53;2.72;;;;;;;;;;4993571;28;20136;-77
2023/07/27 01:30:49;;;;;;;4.22;2.50;;;;;;;;;;4993734;28;20073;-77
2023/07/27 01:33:17;;;;;;;4.60;3.30;;;;;;;;;;4955875;28;20584;-76
2023/07/27 01:36:13;;;;;;;4.68;3.33;;;;;;;;;;4946220;28;20063;-77
2023/07/27 01:38:41;;;;;;;5.68;3.38;;;;;;;;;;4990813;28;20583;-77
2023/07/27 01:41:08;;;;;;;4.40;3.17;;;;;;;;;;4967049;28;20042;-78
2023/07/27 01:43:35;;;;;;;4.25;3.20;;;;;;;;;;4963096;28;20035;-77
2023/07/27 01:46:01;;;;;;;5.87;3.67;;;;;;;;;;4960672;28;20041;-78
2023/07/27 01:48:26;;;;;;;5.43;3.80;;;;;;;;;;4967418;28;20487;-77
2023/07/27 01:50:53;;;;;;;5.63;4.20;;;;;;;;;;4966759;28;20360;-77
2023/07/27 01:53:20;;;;;;;5.07;3.47;;;;;;;;;;4988785;28;20093;-77
2023/07/27 01:55:46;;;;;;;5.15;4.00;;;;;;;;;;4971946;28;20073;-77
2023/07/27 01:58:14;;;;;;;5.72;4.03;;;;;;;;;;4964173;28;20045;-77
2023/07/27 02:00:40;;;;;;;5.18;3.85;;;;;;;;;;4960221;28;20046;-76
2023/07/27 02:03:05;;;;;;;5.32;3.45;;;;;;;;;;4957955;28;20050;-76
2023/07/27 02:05:30;;;;;;;5.05;3.58;;;;;;;;;;4957366;28;20041;-77
2023/07/27 02:07:56;;;;;;;5.30;3.70;;;;;;;;;;4959405;28;20122;-76
2023/07/27 02:10:22;;;;;;;4.95;3.70;;;;;;;;;;4965129;28;20038;-77
2023/07/27 02:12:51;;;;;;;5.13;3.70;;;;;;;;;;4949256;28;20093;-76
2023/07/27 02:15:23;;;;;;;6.07;3.67;;;;;;;;;;4960086;28;20051;-76
2023/07/27 02:18:06;;;;;;;6.68;3.70;;;;;;;;;;4963109;28;20593;-76
2023/07/27 02:20:35;;;;;;;5.68;3.97;;;;;;;;;;4960850;28;20054;-77
2023/07/27 02:23:01;;;;;;;5.30;4.00;;;;;;;;;;4952358;28;20035;-77
2023/07/27 02:25:27;;;;;;;5.50;4.30;;;;;;;;;;4957271;28;20446;-77
2023/07/27 02:27:52;;;;;;;7.63;4.20;;;;;;;;;;4972579;28;20042;-77
2023/07/27 02:30:18;;;;;;;5.38;4.00;;;;;;;;;;4973119;28;20038;-77
2023/07/27 02:32:43;;;;;;;5.45;3.80;;;;;;;;;;4973613;28;20038;-77
2023/07/27 02:35:09;;;;;;;5.93;3.90;;;;;;;;;;4951535;28;20708;-77
2023/07/27 02:37:34;;;;;;;7.15;4.30;;;;;;;;;;4973624;28;20030;-77
2023/07/27 02:39:59;;;;;;;5.75;4.03;;;;;;;;;;4958265;28;20482;-77
2023/07/27 02:42:25;;;;;;;6.20;4.40;;;;;;;;;;4972944;28;20046;-77
2023/07/27 02:44:50;;;;;;;5.90;4.00;;;;;;;;;;4950920;28;20039;-77
2023/07/27 02:47:15;;;;;;;5.53;4.30;;;;;;;;;;4972573;28;20118;-77
2023/07/27 02:49:41;;;;;;;6.05;4.47;;;;;;;;;;4960592;28;20125;-77
2023/07/27 02:52:06;;;;;;;7.78;4.68;;;;;;;;;;4958278;28;20114;-77
2023/07/27 02:54:32;;;;;;;7.93;4.85;;;;;;;;;;4975320;28;20043;-77
2023/07/27 02:56:57;;;;;;;6.07;4.50;;;;;;;;;;4963943;28;20041;-77
2023/07/27 02:59:23;;;;;;;6.28;4.00;;;;;;;;;;4957586;28;20050;-77
2023/07/27 03:01:48;;;;;;;6.25;4.32;;;;;;;;;;4960524;28;20041;-77
2023/07/27 03:04:14;;;;;;;6.13;4.80;;;;;;;;;;4946949;28;20046;-77
2023/07/27 03:06:39;;;;;;;6.47;4.65;;;;;;;;;;4972898;28;20045;-77
2023/07/27 03:09:05;;;;;;;7.95;5.05;;;;;;;;;;4948502;28;20046;-77
2023/07/27 03:11:30;;;;;;;7.00;5.10;;;;;;;;;;4954633;28;20371;-77
2023/07/27 03:13:56;;;;;;;6.65;5.32;;;;;;;;;;4974062;28;20047;-77
2023/07/27 03:16:22;;;;;;;7.53;5.57;;;;;;;;;;4972536;28;20031;-77
2023/07/27 03:18:47;;;;;;;7.05;5.03;;;;;;;;;;4962413;28;20561;-77
2023/07/27 03:21:13;;;;;;;6.93;4.80;;;;;;;;;;4973537;28;20039;-77
2023/07/27 03:23:38;;;;;;;6.57;5.00;;;;;;;;;;4973231;28;20042;-77
2023/07/27 03:26:13;;;;;;;9.25;5.25;;;;;;;;;;4976068;28;20046;-77
2023/07/27 03:28:39;;;;;;;7.35;5.32;;;;;;;;;;4965696;28;20482;-77
2023/07/27 03:31:17;;;;;;;8.20;5.43;;;;;;;;;;4973806;28;20096;-77
2023/07/27 03:33:43;;;;;;;7.95;5.43;;;;;;;;;;4987888;28;20042;-76
2023/07/27 03:36:08;;;;;;;7.05;4.93;;;;;;;;;;4976813;28;20128;-77
2023/07/27 03:38:35;;;;;;;7.82;4.78;;;;;;;;;;4973856;28;20507;-76
2023/07/27 03:41:00;;;;;;;7.60;5.47;;;;;;;;;;4971444;28;20037;-77
2023/07/27 03:43:25;;;;;;;8.75;5.43;;;;;;;;;;4964212;28;20034;-77
2023/07/27 03:45:54;;;;;;;8.45;5.43;;;;;;;;;;4972165;28;20504;-77
2023/07/27 03:48:19;;;;;;;7.15;4.88;;;;;;;;;;4962761;28;20047;-76
2023/07/27 03:50:44;;;;;;;6.90;5.65;;;;;;;;;;4955454;28;20390;-77
2023/07/27 03:53:10;;;;;;;6.10;4.88;;;;;;;;;;4973304;28;20035;-76
2023/07/27 03:55:35;;;;;;;7.85;5.10;;;;;;;;;;4967244;28;20042;-76
2023/07/27 03:58:01;;;;;;;7.50;4.95;;;;;;;;;;4989604;28;20045;-76
2023/07/27 04:00:26;;;;;;;7.68;5.30;;;;;;;;;;4968565;28;20741;-77
2023/07/27 04:02:51;;;;;;;6.50;5.18;;;;;;;;;;4982927;28;20038;-76
2023/07/27 04:05:17;;;;;;;8.70;4.50;;;;;;;;;;4972272;28;20035;-77
2023/07/27 04:07:42;;;;;;;7.47;4.82;;;;;;;;;;4981185;28;20483;-77
2023/07/27 04:10:08;;;;;;;7.03;5.18;;;;;;;;;;4967794;28;20122;-77
2023/07/27 04:12:34;;;;;;;7.28;5.18;;;;;;;;;;4975789;28;20046;-76
2023/07/27 04:14:59;;;;;;;6.85;5.00;;;;;;;;;;4981901;28;20049;-76
2023/07/27 04:17:24;;;;;;;7.72;5.60;;;;;;;;;;4977864;28;20502;-76
2023/07/27 04:19:50;;;;;;;7.82;5.95;;;;;;;;;;4975621;28;20402;-77
2023/07/27 04:22:15;;;;;;;7.85;4.95;;;;;;;;;;4977587;28;20379;-77
2023/07/27 04:24:44;;;;;;;7.28;5.25;;;;;;;;;;4969128;28;20035;-77
2023/07/27 04:27:13;;;;;;;6.70;5.00;;;;;;;;;;4978591;28;20043;-76
2023/07/27 04:29:38;;;;;;;7.18;4.88;;;;;;;;;;4975911;28;20500;-76
2023/07/27 04:32:04;;;;;;;6.63;4.72;;;;;;;;;;4979469;28;20031;-76
2023/07/27 04:34:29;;;;;;;9.35;5.38;;;;;;;;;;4981743;28;20035;-77
2023/07/27 04:36:55;;;;;;;9.30;5.07;;;;;;;;;;4959781;28;20509;-76
2023/07/27 04:39:20;;;;;;;7.07;4.40;;;;;;;;;;4977902;28;20039;-77
2023/07/27 04:41:46;;;;;;;7.30;5.18;;;;;;;;;;4975114;28;20498;-76
2023/07/27 04:44:11;;;;;;;6.88;5.03;;;;;;;;;;4970412;28;20038;-77
2023/07/27 04:46:36;;;;;;;7.15;4.40;;;;;;;;;;4977277;28;20537;-78
2023/07/27 04:49:02;;;;;;;5.85;4.57;;;;;;;;;;4963200;28;20434;-76
2023/07/27 04:51:27;;;;;;;5.60;4.30;;;;;;;;;;4979515;28;20034;-77
2023/07/27 04:53:53;;;;;;;5.90;4.05;;;;;;;;;;4974688;28;20103;-77
2023/07/27 04:56:18;;;;;;;6.25;3.83;;;;;;;;;;4975668;28;20034;-77
2023/07/27 04:58:44;;;;;;;6.50;3.88;;;;;;;;;;4968803;28;20039;-76
2023/07/27 05:01:09;;;;;;;6.82;3.70;;;;;;;;;;4978609;28;20119;-76
2023/07/27 05:03:34;;;;;;;5.95;3.67;;;;;;;;;;4977158;28;20455;-76
2023/07/27 05:06:00;;;;;;;7.30;3.28;;;;;;;;;;4979464;28;20045;-78
2023/07/27 05:08:25;;;;;;;4.88;3.22;;;;;;;;;;4973251;28;20039;-76
2023/07/27 05:10:50;;;;;;;6.88;3.40;;;;;;;;;;4966536;28;20057;-76
2023/07/27 05:13:16;;;;;;;5.47;3.42;;;;;;;;;;4983662;28;20046;-76
2023/07/27 05:15:41;;;;;;;4.90;3.30;;;;;;;;;;4977750;28;20528;-76
2023/07/27 05:18:07;;;;;;;5.65;3.13;;;;;;;;;;4983325;28;20066;-76
2023/07/27 05:20:33;;;;;;;5.57;3.25;;;;;;;;;;4957635;28;20367;-76
2023/07/27 05:22:59;;;;;;;6.45;3.40;;;;;;;;;;4962739;28;20061;-76
2023/07/27 05:25:24;;;;;;;7.60;3.22;;;;;;;;;;4988604;28;20462;-76
2023/07/27 05:27:49;;;;;;;4.50;3.10;;;;;;;;;;4977180;28;20026;-76
2023/07/27 05:30:15;;;;;;;5.28;3.15;;;;;;;;;;4965978;28;20038;-76
2023/07/27 05:32:40;;;;;;;4.28;2.80;;;;;;;;;;4975501;28;20047;-77
2023/07/27 05:35:06;;;;;;;5.57;2.72;;;;;;;;;;4967574;28;20089;-77
2023/07/27 05:37:31;;;;;;;4.95;2.70;;;;;;;;;;4975163;28;20837;-77
2023/07/27 05:39:57;;;;;;;4.88;2.40;;;;;;;;;;4977357;28;20117;-77
2023/07/27 05:42:22;;;;;;;4.68;2.90;;;;;;;;;;4993228;28;20379;-77
2023/07/27 05:44:47;;;;;;;4.93;2.33;;;;;;;;;;4980237;28;20089;-77
2023/07/27 05:47:13;;;;;;;6.82;2.70;;;;;;;;;;4972586;28;20046;-75
2023/07/27 05:49:39;;;;;;;6.70;2.80;;;;;;;;;;4977298;28;20049;-75
2023/07/27 05:52:05;;;;;;;4.85;2.50;;;;;;;;;;4962020;28;20086;-77
2023/07/27 05:54:31;;;;;;;4.38;2.30;;;;;;;;;;4975590;28;20040;-77
2023/07/27 05:56:56;;;;;;;4.32;2.50;;;;;;;;;;4959733;28;20031;-78
2023/07/27 05:59:22;;;;;;;5.18;2.65;;;;;;;;;;4972116;28;20043;-78
2023/07/27 06:01:47;;;;;;;5.00;2.78;;;;;;;;;;4976986;28;20490;-76
2023/07/27 06:04:12;;;;;;;4.05;2.28;;;;;;;;;;4973035;28;20034;-77
2023/07/27 06:06:38;;;;;;;4.78;2.50;;;;;;;;;;4973177;28;20448;-77
2023/07/27 06:09:03;;;;;;;6.47;2.42;;;;;;;;;;4991232;28;20043;-77
2023/07/27 06:11:29;;;;;;;5.00;2.78;;;;;;;;;;4982979;28;20026;-77
2023/07/27 06:13:54;;;;;;;3.78;2.58;;;;;;;;;;4975846;28;20023;-76
2023/07/27 06:16:21;;;;;;;5.63;2.78;;;;;;;;;;4973949;28;20077;-76
2023/07/27 06:18:47;;;;;;;6.38;2.70;;;;;;;;;;4975248;28;20042;-77
2023/07/27 06:21:12;;;;;;;4.05;2.47;;;;;;;;;;4975831;28;20045;-76
2023/07/27 06:23:37;;;;;;;7.82;2.47;;;;;;;;;;4983521;28;20039;-77
2023/07/27 06:26:03;;;;;;;4.65;2.60;;;;;;;;;;4974733;28;20030;-77
2023/07/27 06:28:28;;;;;;;6.38;2.58;;;;;;;;;;4977367;28;20031;-78
2023/07/27 06:30:54;;;;;;;5.03;2.40;;;;;;;;;;4973931;28;20409;-78
2023/07/27 06:33:19;;;;;;;4.50;2.60;;;;;;;;;;4978737;28;20061;-76
2023/07/27 06:35:44;;;;;;;4.53;2.60;;;;;;;;;;4965567;28;20121;-78
2023/07/27 06:38:10;;;;;;;3.95;2.28;;;;;;;;;;4965372;28;20047;-77
2023/07/27 06:40:35;;;;;;;5.47;2.42;;;;;;;;;;4977195;28;20114;-78
2023/07/27 06:43:04;;;;;;;5.65;2.55;;;;;;;;;;4971333;28;20058;-77
2023/07/27 06:45:29;;;;;;;4.13;2.00;;;;;;;;;;4976004;28;20443;-77
2023/07/27 06:47:54;;;;;;;4.35;2.10;;;;;;;;;;4970001;28;20066;-77
2023/07/27 06:50:20;;;;;;;4.20;2.10;;;;;;;;;;4982401;28;20089;-78
2023/07/27 06:52:48;;;;;;;3.80;2.03;;;;;;;;;;4977788;28;20054;-77
2023/07/27 06:55:14;;;;;;;4.00;2.20;;;;;;;;;;4976273;28;20130;-77
2023/07/27 06:57:39;;;;;;;5.13;2.20;;;;;;;;;;4960791;28;20121;-77
2023/07/27 07:00:06;;;;;;;4.55;2.13;;;;;;;;;;4976327;28;20034;-77
2023/07/27 07:02:31;;;;;;;4.55;2.15;;;;;;;;;;4973901;28;20034;-77
2023/07/27 07:04:57;;;;;;;4.60;2.33;;;;;;;;;;4955235;28;20039;-77
2023/07/27 07:07:22;;;;;;;4.40;2.03;;;;;;;;;;4965519;28;20046;-77
2023/07/27 07:09:47;;;;;;;3.85;2.17;;;;;;;;;;4973821;28;20038;-77
2023/07/27 07:12:13;;;;;;;4.55;2.42;;;;;;;;;;4961425;28;20061;-79
2023/07/27 07:14:38;;;;;;;3.88;2.00;;;;;;;;;;4973633;28;20034;-76
2023/07/27 07:17:04;;;;;;;3.67;2.15;;;;;;;;;;4974920;28;20043;-76
2023/07/27 07:19:30;;;;;;;4.35;2.13;;;;;;;;;;4975183;28;20125;-77
2023/07/27 07:21:55;;;;;;;5.68;2.40;;;;;;;;;;4970098;28;20051;-77
2023/07/27 07:24:21;;;;;;;5.50;2.40;;;;;;;;;;4940315;28;20039;-78
2023/07/27 07:26:46;;;;;;;4.18;2.05;;;;;;;;;;4955115;28;20079;-76
2023/07/27 07:29:12;;;;;;;4.30;2.10;;;;;;;;;;4942752;28;20051;-76
2023/07/27 07:31:37;;;;;;;5.95;2.17;;;;;;;;;;4977316;28;20041;-77
2023/07/27 07:34:03;;;;;;;3.63;2.10;;;;;;;;;;4960934;28;20055;-76
2023/07/27 07:36:29;;;;;;;4.80;2.20;;;;;;;;;;4960193;28;20054;-77
2023/07/27 07:38:54;;;;;;;4.28;2.17;;;;;;;;;;4955149;28;20039;-77
2023/07/27 07:41:22;;;;;;;4.50;2.03;;;;;;;;;;4964161;28;20455;-76
2023/07/27 07:43:47;;;;;;;6.70;2.90;;;;;;;;;;4977945;28;20086;-76
2023/07/27 07:46:13;;;;;;;4.20;2.38;;;;;;;;;;4979627;28;20413;-76
2023/07/27 07:48:39;;;;;;;3.70;2.15;;;;;;;;;;4980755;28;20122;-76
2023/07/27 07:51:14;;;;;;;4.30;2.25;;;;;;;;;;4969340;28;20405;-77
2023/07/27 07:53:40;;;;;;;4.53;2.40;;;;;;;;;;4979592;28;20493;-77
2023/07/27 07:56:12;;;;;;;5.28;2.50;;;;;;;;;;4981540;28;20030;-77
2023/07/27 07:58:37;;;;;;;3.80;2.08;;;;;;;;;;4961083;28;20501;-77
2023/07/27 08:01:03;;;;;;;4.18;1.98;;;;;;;;;;4965429;28;20061;-78
2023/07/27 08:03:28;;;;;;;5.63;2.38;;;;;;;;;;4984478;28;20494;-77
2023/07/27 08:05:53;;;;;;;5.78;2.45;;;;;;;;;;4977253;28;20490;-76
2023/07/27 08:08:19;;;;;;;4.82;2.60;;;;;;;;;;4975553;28;20557;-75
2023/07/27 08:10:44;;;;;;;5.35;2.33;;;;;;;;;;4977756;28;20054;-76
2023/07/27 08:13:10;;;;;;;6.07;2.63;;;;;;;;;;4966188;28;20121;-76
2023/07/27 08:15:35;;;;;;;4.85;2.50;;;;;;;;;;4978917;28;20034;-76
2023/07/27 08:18:01;;;;;;;4.60;2.40;;;;;;;;;;4966887;28;20113;-76
2023/07/27 08:20:27;;;;;;;4.43;2.33;;;;;;;;;;4969084;28;20690;-77
2023/07/27 08:22:52;;;;;;;4.25;2.20;;;;;;;;;;4970313;28;20109;-76
2023/07/27 08:25:17;;;;;;;6.20;2.33;;;;;;;;;;4975813;28;20348;-76
2023/07/27 08:27:43;;;;;;;4.30;2.30;;;;;;;;;;4976199;28;20579;-76
2023/07/27 08:30:09;;;;;;;4.88;2.47;;;;;;;;;;4977672;28;20038;-77
2023/07/27 08:32:34;;;;;;;6.15;2.45;;;;;;;;;;4973865;28;20038;-77
2023/07/27 08:35:00;;;;;;;5.53;2.95;;;;;;;;;;4963461;28;21041;-77
2023/07/27 08:37:25;;;;;;;4.35;2.40;;;;;;;;;;4969150;28;20434;-77
2023/07/27 08:39:51;;;;;;;4.30;2.40;;;;;;;;;;4981701;28;20053;-76
2023/07/27 08:42:16;;;;;;;6.70;2.40;;;;;;;;;;4980457;28;20529;-76
2023/07/27 08:44:43;;;;;;;5.72;2.70;;;;;;;;;;4971841;28;20039;-76
2023/07/27 08:47:09;;;;;;;5.22;2.47;;;;;;;;;;4968285;28;20042;-77
2023/07/27 08:49:39;;;;;;;4.90;2.22;;;;;;;;;;4974481;28;20047;-77
2023/07/27 08:52:04;;;;;;;5.28;2.80;;;;;;;;;;4985668;28;20035;-76
2023/07/27 08:54:30;;;;;;;5.07;2.78;;;;;;;;;;4978181;28;20977;-77
2023/07/27 08:56:55;;;;;;;5.30;2.42;;;;;;;;;;4968738;28;20102;-76
2023/07/27 08:59:24;;;;;;;6.60;3.20;;;;;;;;;;4974091;28;20133;-76
2023/07/27 09:01:50;;;;;;;4.30;2.40;;;;;;;;;;4976040;28;20093;-77
2023/07/27 09:04:15;;;;;;;7.18;2.97;;;;;;;;;;4977696;28;20478;-78
2023/07/27 09:06:45;;;;;;;4.78;2.75;;;;;;;;;;4970208;28;20130;-77
2023/07/27 09:09:18;;;;;;;4.45;2.55;;;;;;;;;;4972150;28;20045;-77
2023/07/27 09:11:44;;;;;;;5.63;2.45;;;;;;;;;;4973365;28;20045;-77
2023/07/27 09:14:09;;;;;;;5.40;2.72;;;;;;;;;;4976780;28;20041;-77
2023/07/27 09:16:36;;;;;;;6.07;3.33;;;;;;;;;;4989415;28;20040;-77
2023/07/27 09:19:01;;;;;;;5.78;2.80;;;;;;;;;;4980796;28;20540;-77
2023/07/27 09:21:27;;;;;;;5.93;2.60;;;;;;;;;;4976827;28;20042;-77
2023/07/27 09:23:57;;;;;;;4.90;2.50;;;;;;;;;;4966755;28;20165;-77
2023/07/27 09:26:26;;;;;;;5.88;2.55;;;;;;;;;;4983528;28;20525;-77
2023/07/27 09:28:53;;;;;;;4.43;2.38;;;;;;;;;;4979163;28;20513;-78
2023/07/27 09:31:18;;;;;;;4.45;2.75;;;;;;;;;;4977767;28;20386;-78
2023/07/27 09:33:44;;;;;;;5.13;2.55;;;;;;;;;;4980669;28;20030;-78
2023/07/27 09:36:12;;;;;;;4.28;2.60;;;;;;;;;;4977600;28;20042;-76
2023/07/27 09:38:38;;;;;;;4.43;2.40;;;;;;;;;;4993436;28;20519;-77
2023/07/27 09:41:08;;;;;;;5.00;2.40;;;;;;;;;;4971171;28;20038;-77
2023/07/27 09:43:39;;;;;;;5.07;2.60;;;;;;;;;;4979118;28;20058;-76
2023/07/27 09:46:05;;;;;;;3.92;2.22;;;;;;;;;;4981079;28;20044;-77
2023/07/27 09:48:31;;;;;;;5.93;2.42;;;;;;;;;;4995987;28;20034;-78
2023/07/27 09:50:59;;;;;;;4.82;2.22;;;;;;;;;;4975315;28;20389;-78
2023/07/27 09:53:29;;;;;;;4.38;2.13;;;;;;;;;;4978450;28;20118;-77
2023/07/27 09:55:56;;;;;;;4.13;2.30;;;;;;;;;;4994629;28;20511;-76
2023/07/27 09:58:22;;;;;;;4.03;2.22;;;;;;;;;;4981817;28;20497;-78
2023/07/27 10:00:49;;;;;;;4.25;2.33;;;;;;;;;;4980517;28;20034;-76
2023/07/27 10:03:14;;;;;;;3.83;2.05;;;;;;;;;;4995116;28;20046;-79
2023/07/27 10:05:40;;;;;;;5.97;2.58;;;;;;;;;;4977260;28;20398;-78
2023/07/27 10:08:06;;;;;;;4.32;2.28;;;;;;;;;;4971210;28;20046;-78
2023/07/27 10:10:39;;;;;;;3.72;2.15;;;;;;;;;;4976287;28;20284;-78
2023/07/27 10:13:13;;;;;;;3.83;2.03;;;;;;;;;;4994158;28;20046;-79
2023/07/27 10:15:42;;;;;;;4.32;2.13;;;;;;;;;;4978000;28;20050;-77
2023/07/27 10:18:09;;;;;;;3.72;2.05;;;;;;;;;;4973939;28;20065;-78
2023/07/27 10:20:34;;;;;;;5.10;2.20;;;;;;;;;;4972171;28;21104;-77
2023/07/27 10:23:18;;;;;;;6.72;2.50;;;;;;;;;;4966454;28;20045;-78
2023/07/27 10:25:52;;;;;;;4.35;2.28;;;;;;;;;;4973347;28;20035;-77
2023/07/27 10:28:31;;;;;;;4.10;1.98;;;;;;;;;;4974971;28;20050;-77
2023/07/27 10:31:19;;;;;;;3.53;1.90;;;;;;;;;;4977229;28;20557;-78
2023/07/27 10:34:07;;;;;;;3.45;1.90;;;;;;;;;;4975705;28;20046;-76
2023/07/27 10:37:00;;;;;;;4.47;2.33;;;;;;;;;;4979401;28;20134;-77
2023/07/27 10:39:35;;;;;;;4.60;2.08;;;;;;;;;;4974264;28;20039;-77
2023/07/27 10:42:09;;;;;;;4.60;2.10;;;;;;;;;;4982160;28;20042;-78
2023/07/27 10:44:54;;;;;;;4.55;2.25;;;;;;;;;;4954182;28;20049;-77
2023/07/27 10:47:26;;;;;;;4.13;2.10;;;;;;;;;;4970568;28;20039;-78
2023/07/27 10:49:56;;;;;;;4.50;2.30;;;;;;;;;;4992286;28;20053;-78
2023/07/27 10:52:23;;;;;;;3.50;1.92;;;;;;;;;;4958276;28;20039;-77
2023/07/27 10:54:49;;;;;;;4.63;2.15;;;;;;;;;;4973161;28;20034;-77
2023/07/27 10:57:15;;;;;;;5.05;2.08;;;;;;;;;;4974840;28;20095;-77
2023/07/27 10:59:43;;;;;;;3.92;2.30;;;;;;;;;;4961932;28;20034;-78
2023/07/27 11:02:21;;;;;;;6.32;2.00;;;;;;;;;;4974766;28;20105;-78
2023/07/27 11:04:50;;;;;;;4.93;2.28;;;;;;;;;;4989259;28;20121;-77
2023/07/27 11:07:35;;;;;;;4.45;1.90;;;;;;;;;;4955331;28;20950;-78
2023/07/27 11:10:08;;;;;;;4.10;2.35;;;;;;;;;;4972547;28;20038;-77
2023/07/27 11:12:51;;;;;;;5.00;2.20;;;;;;;;;;4957985;28;20072;-77
2023/07/27 11:15:18;;;;;;;4.28;2.20;;;;;;;;;;4981611;28;20096;-77
2023/07/27 11:17:43;;;;;;;5.68;2.55;;;;;;;;;;4982214;28;20117;-77
2023/07/27 11:20:10;;;;;;;5.13;2.55;;;;;;;;;;4966199;28;20122;-78
2023/07/27 11:22:36;;;;;;;3.78;2.40;;;;;;;;;;4981724;28;20031;-77
2023/07/27 11:25:04;;;;;;;4.28;2.47;;;;;;;;;;4978495;28;20436;-76
2023/07/27 11:27:29;;;;;;;4.03;2.30;;;;;;;;;;4985484;28;20042;-76
2023/07/27 11:29:59;;;;;;;4.55;2.60;;;;;;;;;;4977457;28;20487;-77
2023/07/27 11:32:25;;;;;;;4.50;2.60;;;;;;;;;;4983541;28;20117;-76
2023/07/27 11:34:56;;;;;;;4.80;2.57;;;;;;;;;;4973328;28;20101;-77
2023/07/27 11:37:30;;;;;;;5.85;2.70;;;;;;;;;;4977080;28;20216;-77
2023/07/27 11:39:56;;;;;;;6.80;2.83;;;;;;;;;;4979255;28;20113;-78
2023/07/27 11:42:29;;;;;;;4.75;2.72;;;;;;;;;;4966104;28;20254;-77
2023/07/27 11:44:58;;;;;;;5.40;2.90;;;;;;;;;;4987425;28;20038;-76
2023/07/27 11:47:24;;;;;;;4.70;2.88;;;;;;;;;;4975981;28;20498;-78
2023/07/27 11:49:53;;;;;;;6.03;2.63;;;;;;;;;;4974355;28;20041;-76
2023/07/27 11:52:20;;;;;;;5.78;2.60;;;;;;;;;;4985538;28;20035;-76
2023/07/27 11:54:51;;;;;;;5.18;2.65;;;;;;;;;;4977306;28;20166;-76
2023/07/27 11:57:16;;;;;;;5.25;2.63;;;;;;;;;;4963183;28;20049;-76
2023/07/27 11:59:42;;;;;;;5.28;2.50;;;;;;;;;;4977217;28;20411;-77
2023/07/27 12:02:10;;;;;;;4.75;2.85;;;;;;;;;;4962414;28;20034;-76
2023/07/27 12:04:35;;;;;;;4.53;2.58;;;;;;;;;;4976130;28;20477;-76
2023/07/27 12:07:01;;;;;;;4.68;2.78;;;;;;;;;;4975444;28;20038;-77
2023/07/27 12:09:27;;;;;;;4.80;2.60;;;;;;;;;;4969347;28;20112;-77
2023/07/27 12:11:56;;;;;;;4.55;3.08;;;;;;;;;;4978412;28;20038;-76
2023/07/27 12:14:21;;;;;;;4.88;2.38;;;;;;;;;;4962541;28;20038;-76
2023/07/27 12:16:47;;;;;;;5.75;2.97;;;;;;;;;;4964510;28;20092;-76
2023/07/27 12:19:13;;;;;;;4.00;2.42;;;;;;;;;;4978665;28;20186;-76
2023/07/27 12:21:38;;;;;;;5.35;3.00;;;;;;;;;;4980305;28;20513;-76
2023/07/27 12:24:08;;;;;;;4.82;2.70;;;;;;;;;;4976779;28;20038;-76
2023/07/27 12:26:35;;;;;;;4.53;2.70;;;;;;;;;;4984573;28;20034;-76
2023/07/27 12:29:00;;;;;;;5.65;2.60;;;;;;;;;;4967145;28;20566;-77
2023/07/27 12:31:26;;;;;;;4.78;2.70;;;;;;;;;;4979743;28;20045;-74
2023/07/27 12:33:51;;;;;;;5.10;3.03;;;;;;;;;;4978354;28;20054;-77
2023/07/27 12:36:17;;;;;;;5.30;2.80;;;;;;;;;;4962132;28;20081;-76
2023/07/27 12:38:42;;;;;;;6.03;2.70;;;;;;;;;;4989784;28;20099;-77
2023/07/27 12:41:08;;;;;;;4.65;2.90;;;;;;;;;;4977225;28;20047;-76
2023/07/27 12:43:33;;;;;;;4.80;2.58;;;;;;;;;;4976639;28;20035;-77
2023/07/27 12:45:59;;;;;;;5.35;2.92;;;;;;;;;;4983197;28;20038;-77
2023/07/27 12:48:24;;;;;;;4.80;2.63;;;;;;;;;;4965085;28;20117;-77
2023/07/27 12:50:49;;;;;;;5.80;2.72;;;;;;;;;;4965278;28;20114;-76
2023/07/27 12:53:15;;;;;;;6.15;3.10;;;;;;;;;;4977817;28;20081;-77
2023/07/27 12:55:40;;;;;;;5.85;3.30;;;;;;;;;;4975911;28;20650;-77
2023/07/27 12:58:05;;;;;;;6.53;3.17;;;;;;;;;;4963508;28;20380;-78
2023/07/27 13:00:31;;;;;;;4.68;2.78;;;;;;;;;;4978648;28;20582;-77
2023/07/27 13:02:56;;;;;;;5.32;3.00;;;;;;;;;;4978250;28;20041;-76
2023/07/27 13:05:22;;;;;;;5.05;2.90;;;;;;;;;;4976598;28;20178;-76
2023/07/27 13:07:47;;;;;;;5.65;3.25;;;;;;;;;;4977426;28;20129;-76
2023/07/27 13:10:14;;;;;;;4.95;3.00;;;;;;;;;;4968941;28;20046;-76
2023/07/27 13:12:39;;;;;;;4.78;2.70;;;;;;;;;;4984912;28;20129;-77
2023/07/27 13:15:05;;;;;;;5.38;3.35;;;;;;;;;;4967606;28;20460;-76
2023/07/27 13:17:31;;;;;;;5.60;3.90;;;;;;;;;;4978196;28;20034;-77
2023/07/27 13:19:56;;;;;;;8.13;3.72;;;;;;;;;;4962861;28;20057;-77
2023/07/27 13:22:25;;;;;;;6.20;3.67;;;;;;;;;;4964520;28;20034;-76
2023/07/27 13:24:51;;;;;;;5.10;3.30;;;;;;;;;;4966840;28;20030;-77
2023/07/27 13:27:16;;;;;;;7.32;3.35;;;;;;;;;;4983572;28;20093;-77
2023/07/27 13:29:41;;;;;;;5.63;3.30;;;;;;;;;;4972995;28;20034;-77
2023/07/27 13:32:07;;;;;;;4.82;2.80;;;;;;;;;;4978666;28;20030;-78
2023/07/27 13:34:33;;;;;;;5.18;3.15;;;;;;;;;;4979787;28;20042;-76
2023/07/27 13:37:01;;;;;;;5.45;2.90;;;;;;;;;;4977170;28;20089;-76
2023/07/27 13:39:27;;;;;;;5.32;2.97;;;;;;;;;;4964332;28;20042;-77
2023/07/27 13:41:52;;;;;;;5.03;2.78;;;;;;;;;;4978108;28;20129;-76
2023/07/27 13:44:18;;;;;;;4.65;2.88;;;;;;;;;;4976282;28;20126;-77
2023/07/27 13:46:43;;;;;;;4.60;2.55;;;;;;;;;;4974399;28;20836;-78
2023/07/27 13:49:09;;;;;;;4.50;2.65;;;;;;;;;;4983139;28;20601;-78
2023/07/27 13:51:34;;;;;;;5.53;2.90;;;;;;;;;;4975930;28;20437;-78
2023/07/27 13:54:00;;;;;;;7.18;3.45;;;;;;;;;;4976765;28;20076;-77
2023/07/27 13:56:25;;;;;;;5.07;2.53;;;;;;;;;;4963372;28;20098;-77
2023/07/27 13:58:50;;;;;;;6.13;2.35;;;;;;;;;;4978698;28;20054;-78
2023/07/27 14:01:16;;;;;;;4.95;2.60;;;;;;;;;;4967086;28;20560;-78
2023/07/27 14:03:41;;;;;;;4.03;2.45;;;;;;;;;;4978145;28;20069;-76
2023/07/27 14:06:06;;;;;;;5.07;2.70;;;;;;;;;;4973011;28;20038;-75
2023/07/27 14:08:32;;;;;;;5.00;2.40;;;;;;;;;;4962373;28;20026;-76
2023/07/27 14:10:58;;;;;;;4.95;2.90;;;;;;;;;;4973732;28;20040;-76
2023/07/27 14:13:23;;;;;;;4.75;2.35;;;;;;;;;;4980293;28;20041;-77
2023/07/27 14:15:49;;;;;;;4.40;2.50;;;;;;;;;;4967541;28;20039;-77
2023/07/27 14:18:14;;;;;;;4.72;2.65;;;;;;;;;;4966496;28;20574;-77
2023/07/27 14:20:40;;;;;;;5.93;2.30;;;;;;;;;;4973944;28;20038;-76
2023/07/27 14:23:05;;;;;;;5.60;2.10;;;;;;;;;;4960448;28;20039;-76
2023/07/27 14:25:30;;;;;;;5.47;2.33;;;;;;;;;;4982276;28;20541;-76
2023/07/27 14:27:56;;;;;;;5.90;2.10;;;;;;;;;;4968440;28;20076;-76
2023/07/27 14:30:21;;;;;;;5.03;2.10;;;;;;;;;;4974542;28;20042;-76
2023/07/27 14:32:47;;;;;;;5.30;2.00;;;;;;;;;;4974768;28;20490;-76
2023/07/27 14:35:12;;;;;;;4.57;2.15;;;;;;;;;;4966342;28;20046;-75
2023/07/27 14:37:37;;;;;;;4.55;2.00;;;;;;;;;;4976603;28;20125;-77
2023/07/27 14:40:03;;;;;;;5.72;2.30;;;;;;;;;;4974124;28;20076;-77
2023/07/27 14:42:29;;;;;;;6.13;2.40;;;;;;;;;;4982577;28;20113;-77